Time;durP1;ratioP1;P1;durP2;ratioP2;P2;SDS_P1;SDS_P2;PMS_P1;PMS_P2;Temp;Humidity;BMP_temperature;BMP_pressure;BME280_temperature;BME280_humidity;BME280_pressure;Samples;Min_cycle;Max_cycle;Signal;HPM_P1;HPM_P2
2022/05/31 00:01:47;;;;;;;;;;;;;;;10.16;65.76;100148.31;5136747;27;19946;-51
2022/05/31 00:04:15;;;;;;;;;;;;;;;10.11;66.49;100150.41;5137343;27;19930;-53
2022/05/31 00:06:42;;;;;;;;;;;;;;;10.13;65.81;100143.38;5135139;27;19947;-51
2022/05/31 00:09:09;;;;;;;;;;;;;;;10.06;66.35;100143.03;5136780;27;19946;-51
2022/05/31 00:11:38;;;;;;;;;;;;;;;10.02;66.25;100135.63;5126582;27;19923;-51
2022/05/31 00:14:05;;;;;;;;;;;;;;;10.02;66.21;100144.78;5116374;28;19931;-50
2022/05/31 00:16:32;;;;;;;;;;;;;;;9.99;66.10;100136.25;5116237;28;19931;-50
2022/05/31 00:18:59;;;;;;;;;;;;;;;10.03;65.81;100138.06;5116296;28;19923;-50
2022/05/31 00:21:33;;;;;;;;;;;;;;;9.97;66.62;100136.56;5130167;27;19937;-50
2022/05/31 00:24:05;;;;;;;;;;;;;;;9.96;66.57;100140.50;5136748;27;19930;-51
2022/05/31 00:26:32;;;;;;;;;;;;;;;9.91;66.66;100132.28;5136993;27;19923;-50
2022/05/31 00:29:00;;;;;;;;;;;;;;;9.92;66.33;100128.38;5136875;27;20291;-54
2022/05/31 00:31:28;;;;;;;;;;;;;;;9.87;66.85;100123.78;5136783;27;19923;-53
2022/05/31 00:33:55;;;;;;;;;;;;;;;9.91;66.71;100126.72;5136655;27;19923;-51
2022/05/31 00:36:22;;;;;;;;;;;;;;;9.90;66.73;100123.13;5135127;27;19924;-50
2022/05/31 00:38:49;;;;;;;;;;;;;;;9.90;66.65;100127.88;5136621;27;20303;-51
2022/05/31 00:41:24;;;;;;;;;;;;;;;9.94;66.56;100120.53;5136541;27;20378;-50
2022/05/31 00:43:51;;;;;;;;;;;;;;;9.94;66.44;100123.31;5136489;27;19925;-51
2022/05/31 00:46:21;;;;;;;;;;;;;;;9.93;66.58;100121.66;5136156;27;19927;-53
2022/05/31 00:48:50;;;;;;;;;;;;;;;9.91;66.51;100121.16;5136017;27;20108;-50
2022/05/31 00:51:18;;;;;;;;;;;;;;;9.92;66.66;100114.47;5130636;27;19931;-51
2022/05/31 00:53:48;;;;;;;;;;;;;;;9.89;66.60;100117.88;5135845;27;19923;-52
2022/05/31 00:56:19;;;;;;;;;;;;;;;9.92;66.28;100117.25;5136404;27;20386;-51
2022/05/31 00:58:48;;;;;;;;;;;;;;;9.81;66.72;100113.09;5136125;27;19923;-51
2022/05/31 01:01:17;;;;;;;;;;;;;;;9.81;66.87;100107.53;5136645;27;19931;-51
2022/05/31 01:03:45;;;;;;;;;;;;;;;9.83;66.76;100110.81;5135933;27;19930;-51
2022/05/31 01:06:13;;;;;;;;;;;;;;;9.90;66.47;100117.56;5134051;27;19931;-53
2022/05/31 01:08:41;;;;;;;;;;;;;;;9.86;67.26;100119.31;5135826;27;20307;-53
2022/05/31 01:11:09;;;;;;;;;;;;;;;9.87;67.48;100111.78;5129494;27;19923;-52
2022/05/31 01:13:36;;;;;;;;;;;;;;;9.88;67.64;100113.47;5114779;28;19924;-51
2022/05/31 01:16:04;;;;;;;;;;;;;;;9.92;67.68;100114.47;5115008;28;19947;-52
2022/05/31 01:18:31;;;;;;;;;;;;;;;9.91;68.30;100116.44;5114495;27;19931;-51
2022/05/31 01:21:00;;;;;;;;;;;;;;;9.94;68.17;100107.44;5135804;27;19923;-52
2022/05/31 01:23:28;;;;;;;;;;;;;;;9.92;68.42;100117.25;5135873;27;19930;-51
2022/05/31 01:26:02;;;;;;;;;;;;;;;10.00;67.95;100116.47;5135622;27;19942;-50
2022/05/31 01:28:34;;;;;;;;;;;;;;;10.03;67.97;100107.47;5135579;27;19973;-51
2022/05/31 01:31:06;;;;;;;;;;;;;;;10.06;67.70;100115.19;5134997;27;20303;-50
2022/05/31 01:33:34;;;;;;;;;;;;;;;10.00;67.32;100105.34;5133141;27;20375;-50
2022/05/31 01:36:07;;;;;;;;;;;;;;;9.97;67.09;100103.19;5135577;27;20394;-51
2022/05/31 01:38:39;;;;;;;;;;;;;;;9.97;67.14;100108.75;5135462;27;19931;-51
2022/05/31 01:41:11;;;;;;;;;;;;;;;9.78;67.40;100103.41;5135643;27;19923;-51
2022/05/31 01:43:38;;;;;;;;;;;;;;;9.74;67.63;100100.47;5135641;27;19924;-51
2022/05/31 01:46:06;;;;;;;;;;;;;;;9.73;67.69;100104.38;5135374;27;19923;-51
2022/05/31 01:48:35;;;;;;;;;;;;;;;9.63;68.86;100107.41;5132346;27;19923;-50
2022/05/31 01:51:04;;;;;;;;;;;;;;;9.72;68.34;100105.53;5135095;27;20372;-51
2022/05/31 01:53:33;;;;;;;;;;;;;;;9.72;68.57;100097.19;5135215;27;19931;-52
2022/05/31 01:56:00;;;;;;;;;;;;;;;9.79;68.40;100105.06;5134958;27;19947;-51
2022/05/31 01:58:30;;;;;;;;;;;;;;;9.84;69.04;100093.78;5135238;27;19931;-51
2022/05/31 02:00:57;;;;;;;;;;;;;;;9.94;68.69;100092.69;5135214;27;19938;-51
2022/05/31 02:03:24;;;;;;;;;;;;;;;9.99;67.86;100089.78;5133131;27;19931;-51
2022/05/31 02:05:53;;;;;;;;;;;;;;;10.01;67.56;100086.69;5134341;27;19923;-50
2022/05/31 02:08:22;;;;;;;;;;;;;;;10.03;67.59;100088.00;5134635;27;20383;-53
2022/05/31 02:10:50;;;;;;;;;;;;;;;10.00;67.42;100082.25;5130870;27;19934;-51
2022/05/31 02:13:18;;;;;;;;;;;;;;;10.02;67.63;100088.34;5114479;28;19924;-52
2022/05/31 02:15:45;;;;;;;;;;;;;;;10.11;67.50;100084.44;5114107;28;20292;-52
2022/05/31 02:18:13;;;;;;;;;;;;;;;10.13;67.34;100079.38;5127601;27;19931;-51
2022/05/31 02:20:40;;;;;;;;;;;;;;;10.15;67.85;100076.28;5134619;27;19935;-51
2022/05/31 02:23:08;;;;;;;;;;;;;;;10.19;67.94;100082.03;5134192;27;20275;-50
2022/05/31 02:25:36;;;;;;;;;;;;;;;10.22;68.05;100078.59;5134518;27;20375;-51
2022/05/31 02:28:03;;;;;;;;;;;;;;;10.25;68.15;100081.56;5134391;27;20295;-51
2022/05/31 02:30:30;;;;;;;;;;;;;;;10.29;67.71;100079.78;5134797;27;19934;-51
2022/05/31 02:32:57;;;;;;;;;;;;;;;10.29;67.39;100078.91;5132001;27;19924;-51
2022/05/31 02:35:24;;;;;;;;;;;;;;;10.26;67.88;100080.41;5134774;27;19931;-51
2022/05/31 02:37:52;;;;;;;;;;;;;;;10.29;67.58;100076.13;5134284;27;19924;-50
2022/05/31 02:40:20;;;;;;;;;;;;;;;10.34;67.30;100073.25;5134471;27;19930;-50
2022/05/31 02:42:48;;;;;;;;;;;;;;;10.37;67.11;100067.03;5134073;27;19924;-53
2022/05/31 02:45:15;;;;;;;;;;;;;;;10.33;67.07;100058.53;5134778;27;19930;-50
2022/05/31 02:47:42;;;;;;;;;;;;;;;10.33;67.10;100063.25;5128469;27;19930;-50
2022/05/31 02:50:09;;;;;;;;;;;;;;;10.30;67.33;100061.13;5134463;27;19930;-52
2022/05/31 02:52:36;;;;;;;;;;;;;;;10.31;67.10;100060.81;5134269;27;20372;-50
2022/05/31 02:55:03;;;;;;;;;;;;;;;10.29;67.42;100067.78;5133946;27;19924;-51
2022/05/31 02:57:31;;;;;;;;;;;;;;;10.32;67.37;100061.63;5134218;27;19927;-51
2022/05/31 02:59:59;;;;;;;;;;;;;;;10.34;67.32;100065.72;5133968;27;20325;-53
2022/05/31 03:02:26;;;;;;;;;;;;;;;10.27;67.80;100065.34;5132038;27;20286;-54
2022/05/31 03:04:53;;;;;;;;;;;;;;;10.28;67.67;100060.59;5133507;27;19931;-52
2022/05/31 03:07:20;;;;;;;;;;;;;;;10.28;67.78;100066.97;5125581;27;19930;-51
2022/05/31 03:09:47;;;;;;;;;;;;;;;10.27;67.70;100061.75;5134016;27;20398;-51
2022/05/31 03:12:16;;;;;;;;;;;;;;;10.21;67.66;100058.28;5118207;27;19924;-51
2022/05/31 03:14:46;;;;;;;;;;;;;;;10.28;67.54;100055.03;5122474;27;19923;-50
2022/05/31 03:17:16;;;;;;;;;;;;;;;10.24;67.96;100048.47;5133950;27;19923;-51
2022/05/31 03:19:47;;;;;;;;;;;;;;;10.34;67.61;100057.38;5133903;27;19931;-53
2022/05/31 03:22:15;;;;;;;;;;;;;;;10.33;67.70;100050.16;5133799;27;19931;-51
2022/05/31 03:24:44;;;;;;;;;;;;;;;10.36;67.41;100043.94;5133711;27;19924;-51
2022/05/31 03:27:12;;;;;;;;;;;;;;;10.41;67.18;100053.28;5133541;27;20295;-51
2022/05/31 03:29:42;;;;;;;;;;;;;;;10.42;67.26;100047.41;5124672;28;19931;-51
2022/05/31 03:32:09;;;;;;;;;;;;;;;10.43;67.42;100049.03;5132226;28;20355;-51
2022/05/31 03:34:37;;;;;;;;;;;;;;;10.42;67.17;100050.19;5133793;27;19930;-51
2022/05/31 03:37:05;;;;;;;;;;;;;;;10.44;67.42;100050.69;5137759;27;20275;-52
2022/05/31 03:39:32;;;;;;;;;;;;;;;10.47;67.29;100052.81;5137978;27;19923;-51
2022/05/31 03:41:59;;;;;;;;;;;;;;;10.53;67.36;100048.72;5137663;27;19923;-51
2022/05/31 03:44:26;;;;;;;;;;;;;;;10.57;67.30;100044.16;5138065;27;19931;-50
2022/05/31 03:46:54;;;;;;;;;;;;;;;10.64;67.23;100040.06;5132084;27;19923;-51
2022/05/31 03:49:20;;;;;;;;;;;;;;;10.62;67.01;100036.78;5137802;27;20414;-50
2022/05/31 03:51:49;;;;;;;;;;;;;;;10.68;67.01;100041.06;5138110;27;19929;-51
2022/05/31 03:54:16;;;;;;;;;;;;;;;10.76;66.86;100038.28;5136853;27;19946;-51
2022/05/31 03:56:43;;;;;;;;;;;;;;;10.81;66.89;100040.06;5137457;27;19924;-52
2022/05/31 03:59:10;;;;;;;;;;;;;;;10.81;66.61;100042.06;5137418;27;19923;-54
2022/05/31 04:01:37;;;;;;;;;;;;;;;10.78;66.89;100040.75;5135554;27;19930;-51
2022/05/31 04:04:04;;;;;;;;;;;;;;;10.80;67.03;100041.25;5137579;27;19924;-51
2022/05/31 04:06:31;;;;;;;;;;;;;;;10.88;66.52;100037.63;5137775;27;19935;-52
2022/05/31 04:09:02;;;;;;;;;;;;;;;10.90;66.71;100032.56;5137291;27;20322;-51
2022/05/31 04:11:29;;;;;;;;;;;;;;;10.96;66.30;100039.63;5127942;27;19931;-52
2022/05/31 04:13:56;;;;;;;;;;;;;;;11.02;66.39;100031.06;5116681;28;19924;-50
2022/05/31 04:16:25;;;;;;;;;;;;;;;11.11;66.10;100037.47;5131846;27;20279;-51
2022/05/31 04:18:52;;;;;;;;;;;;;;;11.09;66.16;100034.22;5136943;27;19934;-50
2022/05/31 04:21:19;;;;;;;;;;;;;;;11.17;66.04;100034.19;5137064;27;19923;-51
2022/05/31 04:23:59;;;;;;;;;;;;;;;11.12;66.10;100028.78;5137007;27;19923;-51
2022/05/31 04:26:29;;;;;;;;;;;;;;;11.20;66.10;100032.72;5136848;27;19930;-51
2022/05/31 04:28:56;;;;;;;;;;;;;;;11.24;65.36;100030.09;5136922;27;19924;-51
2022/05/31 04:31:23;;;;;;;;;;;;;;;11.25;65.85;100032.53;5130248;27;19927;-51
2022/05/31 04:33:51;;;;;;;;;;;;;;;11.30;65.94;100031.56;5121483;27;19939;-52
2022/05/31 04:36:18;;;;;;;;;;;;;;;11.36;65.80;100031.06;5128467;27;19923;-51
2022/05/31 04:38:46;;;;;;;;;;;;;;;11.37;65.79;100037.44;5136730;27;19923;-52
2022/05/31 04:41:16;;;;;;;;;;;;;;;11.43;65.74;100036.13;5116100;28;19927;-51
2022/05/31 04:43:44;;;;;;;;;;;;;;;11.51;65.52;100034.47;5103367;27;19931;-51
2022/05/31 04:46:11;;;;;;;;;;;;;;;11.61;65.17;100036.88;5114564;28;19939;-51
2022/05/31 04:48:39;;;;;;;;;;;;;;;11.69;64.68;100030.47;5110806;28;19932;-53
2022/05/31 04:51:06;;;;;;;;;;;;;;;11.70;64.76;100036.88;5099902;27;19938;-53
2022/05/31 04:53:33;;;;;;;;;;;;;;;11.81;64.32;100037.34;5098808;28;19931;-54
2022/05/31 04:56:01;;;;;;;;;;;;;;;11.85;64.52;100032.72;5108065;28;19924;-50
2022/05/31 04:58:30;;;;;;;;;;;;;;;11.91;64.24;100049.00;5101883;28;19924;-51
2022/05/31 05:01:01;;;;;;;;;;;;;;;11.96;63.95;100040.41;5104672;28;20324;-51
2022/05/31 05:03:28;;;;;;;;;;;;;;;11.98;63.42;100040.09;5095109;28;19924;-51
2022/05/31 05:05:58;;;;;;;;;;;;;;;11.98;63.65;100042.88;5111593;27;19931;-51
2022/05/31 05:08:25;;;;;;;;;;;;;;;12.05;63.59;100028.41;5115119;28;19931;-51
2022/05/31 05:10:52;;;;;;;;;;;;;;;12.13;63.27;100033.94;5109474;28;19923;-51
2022/05/31 05:13:19;;;;;;;;;;;;;;;12.25;63.55;100024.03;5095066;28;19931;-52
2022/05/31 05:15:46;;;;;;;;;;;;;;;12.33;63.12;100035.16;5096690;28;20285;-51
2022/05/31 05:18:14;;;;;;;;;;;;;;;12.42;63.17;100031.50;5100414;28;19935;-51
2022/05/31 05:20:41;;;;;;;;;;;;;;;12.51;62.38;100032.25;5117530;27;20402;-51
2022/05/31 05:23:08;;;;;;;;;;;;;;;12.39;62.63;100030.22;5094416;28;20361;-51
2022/05/31 05:25:35;;;;;;;;;;;;;;;12.47;62.79;100029.31;5103501;28;19924;-50
2022/05/31 05:30:38;;;;;;;;;;;;;;;12.55;62.30;100027.63;5113454;28;19951;-51
2022/05/31 05:30:49;;;;;;;;;;;;;;;12.67;62.49;100035.28;5109103;28;19924;-51
2022/05/31 05:33:18;;;;;;;;;;;;;;;12.74;62.16;100024.38;5096109;27;19924;-51
2022/05/31 05:35:45;;;;;;;;;;;;;;;12.77;62.20;100020.91;5123451;27;19931;-50
2022/05/31 05:38:13;;;;;;;;;;;;;;;12.74;62.02;100016.81;5109357;27;19924;-51
2022/05/31 05:40:40;;;;;;;;;;;;;;;12.75;62.67;100021.25;5094082;28;20030;-51
2022/05/31 05:43:08;;;;;;;;;;;;;;;12.79;63.07;100032.56;5101598;28;19924;-52
2022/05/31 05:45:36;;;;;;;;;;;;;;;12.84;62.82;100035.16;5114374;28;19924;-51
2022/05/31 05:48:03;;;;;;;;;;;;;;;12.80;63.14;100040.59;5114484;28;19928;-51
2022/05/31 05:50:33;;;;;;;;;;;;;;;12.84;63.36;100026.78;5115426;27;20283;-51
2022/05/31 05:53:05;;;;;;;;;;;;;;;12.96;62.76;100031.63;5134371;27;19930;-52
2022/05/31 05:55:32;;;;;;;;;;;;;;;13.04;62.32;100029.91;5125047;27;20313;-51
2022/05/31 05:58:00;;;;;;;;;;;;;;;13.20;62.35;100036.50;5113192;28;19924;-53
2022/05/31 06:00:27;;;;;;;;;;;;;;;13.30;62.62;100033.31;5114723;28;19998;-51
2022/05/31 06:02:58;;;;;;;;;;;;;;;13.44;62.53;100032.19;5114463;28;20329;-52
2022/05/31 06:05:27;;;;;;;;;;;;;;;13.48;61.80;100024.75;5116574;27;19930;-49
2022/05/31 06:07:58;;;;;;;;;;;;;;;13.57;62.55;100019.88;5134108;27;19927;-52
2022/05/31 06:10:26;;;;;;;;;;;;;;;13.69;62.72;100022.72;5134628;27;19923;-50
2022/05/31 06:12:57;;;;;;;;;;;;;;;13.78;62.59;100023.44;5114356;28;19931;-52
2022/05/31 06:15:27;;;;;;;;;;;;;;;13.84;62.62;100024.03;5114211;28;19923;-53
2022/05/31 06:17:55;;;;;;;;;;;;;;;13.80;62.18;100023.91;5114494;28;19928;-51
2022/05/31 06:20:23;;;;;;;;;;;;;;;13.80;62.31;100031.50;5119382;27;19923;-51
2022/05/31 06:22:50;;;;;;;;;;;;;;;13.73;62.43;100026.47;5134579;27;20352;-52
2022/05/31 06:25:20;;;;;;;;;;;;;;;13.85;61.87;100033.25;5124944;27;20022;-54
2022/05/31 06:27:48;;;;;;;;;;;;;;;13.87;61.91;100037.31;5114408;28;19924;-52
2022/05/31 06:30:15;;;;;;;;;;;;;;;13.85;61.78;100048.03;5121033;27;19931;-51
2022/05/31 06:32:42;;;;;;;;;;;;;;;13.75;61.44;100040.94;5134784;27;20273;-51
2022/05/31 06:35:09;;;;;;;;;;;;;;;13.81;61.54;100050.72;5134108;27;19923;-51
2022/05/31 06:37:36;;;;;;;;;;;;;;;13.83;61.68;100055.16;5128205;27;20364;-53
2022/05/31 06:40:03;;;;;;;;;;;;;;;13.76;61.28;100048.16;5131500;27;19927;-55
2022/05/31 06:42:32;;;;;;;;;;;;;;;13.75;61.37;100060.53;5109013;27;19931;-53
2022/05/31 06:45:00;;;;;;;;;;;;;;;13.81;60.92;100056.31;5109138;28;19935;-55
2022/05/31 06:47:27;;;;;;;;;;;;;;;13.74;60.87;100058.88;5113795;27;19927;-53
2022/05/31 06:49:54;;;;;;;;;;;;;;;13.68;60.85;100057.47;5112204;28;19928;-53
2022/05/31 06:57:53;;;;;;;;;;;;;;;13.68;61.64;100062.25;5111736;27;19924;-53
2022/05/31 07:00:21;;;;;;;;;;;;;;;13.60;61.23;100052.75;5107665;28;19955;-55
2022/05/31 07:02:49;;;;;;;;;;;;;;;13.67;61.88;100050.25;5098433;27;20384;-53
2022/05/31 07:05:17;;;;;;;;;;;;;;;13.81;62.03;100042.31;5098181;28;19924;-55
2022/05/31 07:07:44;;;;;;;;;;;;;;;13.89;61.07;100039.78;5095266;28;19935;-55
2022/05/31 07:10:12;;;;;;;;;;;;;;;13.56;61.75;100049.81;5091623;28;19931;-54
2022/05/31 07:12:40;;;;;;;;;;;;;;;13.28;64.06;100049.59;5109444;28;20296;-55
2022/05/31 07:15:09;;;;;;;;;;;;;;;13.25;64.57;100046.66;5092222;28;20001;-56
2022/05/31 07:17:36;;;;;;;;;;;;;;;13.33;64.64;100041.03;5110370;27;19931;-56
2022/05/31 07:20:06;;;;;;;;;;;;;;;13.38;63.69;100038.00;5109606;27;19935;-53
2022/05/31 07:22:33;;;;;;;;;;;;;;;13.20;64.64;100026.13;5111444;27;19924;-52
2022/05/31 07:25:01;;;;;;;;;;;;;;;13.02;64.41;100024.66;5118613;28;19930;-54
2022/05/31 07:27:28;;;;;;;;;;;;;;;13.08;64.94;100022.47;5101262;28;19923;-53
2022/05/31 07:29:55;;;;;;;;;;;;;;;13.06;65.80;100016.38;5103174;28;19925;-55
2022/05/31 07:32:23;;;;;;;;;;;;;;;13.15;66.25;100008.75;5100903;28;19924;-56
2022/05/31 07:34:50;;;;;;;;;;;;;;;13.07;66.93;100016.06;5099152;28;19924;-55
2022/05/31 07:37:18;;;;;;;;;;;;;;;13.02;67.62;100013.47;5110984;28;21090;-55
2022/05/31 07:39:47;;;;;;;;;;;;;;;13.07;67.39;100009.66;5103390;28;19924;-55
2022/05/31 07:42:14;;;;;;;;;;;;;;;13.18;67.17;100013.66;5096053;28;19939;-54
2022/05/31 07:44:40;;;;;;;;;;;;;;;13.31;67.27;100008.94;5110298;28;19931;-54
2022/05/31 07:47:08;;;;;;;;;;;;;;;13.50;66.94;100009.28;5108101;28;19931;-54
2022/05/31 07:49:36;;;;;;;;;;;;;;;13.59;66.36;100009.97;5126586;28;19924;-53
2022/05/31 07:52:07;;;;;;;;;;;;;;;13.83;65.82;100007.56;5114749;28;19931;-56
2022/05/31 07:54:34;;;;;;;;;;;;;;;13.95;65.85;100011.19;5115168;28;19935;-54
2022/05/31 07:57:03;;;;;;;;;;;;;;;14.10;65.67;100006.09;5109556;28;19931;-53
2022/05/31 07:59:31;;;;;;;;;;;;;;;14.25;64.92;100012.97;5096886;28;19943;-56
2022/05/31 08:01:58;;;;;;;;;;;;;;;14.36;64.81;100011.31;5104450;28;19924;-53
2022/05/31 08:04:25;;;;;;;;;;;;;;;14.31;64.79;100015.19;5115989;28;19923;-55
2022/05/31 08:06:59;;;;;;;;;;;;;;;14.40;65.14;100015.06;5125407;28;19923;-56
2022/05/31 08:09:27;;;;;;;;;;;;;;;14.48;65.18;100013.31;5118950;28;20271;-56
2022/05/31 08:11:53;;;;;;;;;;;;;;;14.60;64.34;100018.91;5110941;28;19970;-54
2022/05/31 08:14:20;;;;;;;;;;;;;;;14.57;64.25;100016.81;5108103;28;19942;-53
2022/05/31 08:16:47;;;;;;;;;;;;;;;14.69;64.30;100010.38;5112906;28;19931;-55
2022/05/31 08:19:14;;;;;;;;;;;;;;;14.72;64.55;100004.03;5116958;28;19930;-53
2022/05/31 08:21:41;;;;;;;;;;;;;;;14.78;64.34;100005.44;5131612;27;20290;-54
2022/05/31 08:24:11;;;;;;;;;;;;;;;14.83;64.71;100008.00;5119559;27;19982;-56
2022/05/31 08:26:38;;;;;;;;;;;;;;;14.92;64.09;100002.25;5133416;27;20429;-53
2022/05/31 08:29:05;;;;;;;;;;;;;;;15.03;63.77;100008.97;5102824;27;19923;-54
2022/05/31 08:31:34;;;;;;;;;;;;;;;15.15;63.80;100011.75;5122166;27;20241;-53
2022/05/31 08:34:03;;;;;;;;;;;;;;;15.20;64.06;100021.91;5110691;27;19923;-56
2022/05/31 08:36:31;;;;;;;;;;;;;;;15.21;63.33;100026.34;5108076;27;19928;-52
2022/05/31 08:38:58;;;;;;;;;;;;;;;15.31;62.51;100025.03;5115995;28;19993;-53
2022/05/31 08:41:29;;;;;;;;;;;;;;;15.36;62.05;100027.56;5129368;27;20395;-54
2022/05/31 08:44:12;;;;;;;;;;;;;;;15.51;61.56;100007.13;5115192;28;19931;-55
2022/05/31 08:46:54;;;;;;;;;;;;;;;15.70;60.27;100012.06;5128231;27;19952;-53
2022/05/31 08:51:52;;;;;;;;;;;;;;;15.91;58.45;100011.03;5104135;27;19925;-54
2022/05/31 08:52:19;;;;;;;;;;;;;;;16.23;58.53;100009.00;5113687;28;19931;-56
2022/05/31 08:57:36;;;;;;;;;;;;;;;16.88;56.99;100011.34;5107823;28;19928;-55
2022/05/31 09:00:07;;;;;;;;;;;;;;;16.95;55.16;100005.06;5098651;27;19931;-54
2022/05/31 09:02:38;;;;;;;;;;;;;;;17.01;54.29;100012.84;5101397;28;20031;-53
2022/05/31 09:05:08;;;;;;;;;;;;;;;17.11;55.26;100008.59;5122393;27;19923;-54
2022/05/31 09:07:39;;;;;;;;;;;;;;;17.25;55.64;100003.28;5123434;27;20371;-53
2022/05/31 09:10:08;;;;;;;;;;;;;;;17.33;54.81;99995.78;5104487;28;19932;-55
2022/05/31 09:12:42;;;;;;;;;;;;;;;17.37;53.98;99996.69;5129654;27;19930;-53
2022/05/31 09:15:11;;;;;;;;;;;;;;;17.28;54.40;99998.09;5114727;28;20292;-54
2022/05/31 09:17:45;;;;;;;;;;;;;;;17.41;54.14;100000.38;5114180;27;20294;-54
2022/05/31 09:20:13;;;;;;;;;;;;;;;17.44;55.46;100008.06;5122423;27;19931;-55
2022/05/31 09:22:43;;;;;;;;;;;;;;;17.43;54.55;100000.03;5131167;27;20283;-55
2022/05/31 09:25:10;;;;;;;;;;;;;;;17.26;55.32;99998.47;5111625;28;19931;-56
2022/05/31 09:27:41;;;;;;;;;;;;;;;17.04;55.19;100020.53;5121046;27;19935;-53
2022/05/31 09:30:10;;;;;;;;;;;;;;;16.90;55.91;100025.84;5106895;28;19930;-53
2022/05/31 09:32:44;;;;;;;;;;;;;;;16.78;56.51;100034.41;5114030;27;20390;-52
2022/05/31 09:35:20;;;;;;;;;;;;;;;16.67;57.13;100038.94;5127373;27;19923;-55
2022/05/31 09:37:54;;;;;;;;;;;;;;;16.62;57.62;100038.06;5112496;27;19923;-53
2022/05/31 09:40:38;;;;;;;;;;;;;;;16.39;58.90;100049.16;5114604;28;19923;-55
2022/05/31 09:43:09;;;;;;;;;;;;;;;16.35;58.92;100053.06;5116018;27;19935;-54
2022/05/31 09:45:40;;;;;;;;;;;;;;;16.15;59.06;100055.81;5114070;28;20280;-53
2022/05/31 09:48:07;;;;;;;;;;;;;;;16.09;60.16;100060.06;5098932;27;19932;-55
2022/05/31 09:50:34;;;;;;;;;;;;;;;16.10;59.95;100061.69;5099377;28;19934;-52
2022/05/31 09:57:05;;;;;;;;;;;;;;;16.08;60.30;100047.16;5112732;27;19923;-53
2022/05/31 09:58:37;;;;;;;;;;;;;;;16.12;59.90;100050.06;5122115;27;20288;-56
2022/05/31 10:01:05;;;;;;;;;;;;;;;16.23;60.90;100053.97;5112323;28;19924;-53
2022/05/31 10:03:33;;;;;;;;;;;;;;;16.35;61.09;100053.06;5100566;27;20395;-53
2022/05/31 10:06:06;;;;;;;;;;;;;;;16.43;61.77;100046.44;5093807;28;20360;-55
2022/05/31 10:08:35;;;;;;;;;;;;;;;16.48;60.33;100043.34;5101056;28;20300;-54
2022/05/31 10:11:04;;;;;;;;;;;;;;;16.66;60.16;100026.09;5109866;27;19947;-54
2022/05/31 10:13:37;;;;;;;;;;;;;;;16.82;59.88;100018.47;5119617;27;19924;-56
2022/05/31 10:16:25;;;;;;;;;;;;;;;16.87;59.65;100014.53;5112957;28;19931;-54
2022/05/31 10:18:53;;;;;;;;;;;;;;;16.71;59.63;100000.47;5121974;27;19923;-55
2022/05/31 10:21:32;;;;;;;;;;;;;;;16.76;60.51;99991.78;5122758;27;19924;-55
2022/05/31 10:24:06;;;;;;;;;;;;;;;16.43;61.38;99990.22;5109750;28;19935;-55
2022/05/31 10:26:37;;;;;;;;;;;;;;;16.72;61.47;99986.06;5109719;28;19924;-53
2022/05/31 10:29:12;;;;;;;;;;;;;;;16.83;60.66;99986.31;5109770;28;19923;-52
2022/05/31 10:31:40;;;;;;;;;;;;;;;16.77;60.10;99985.75;5109743;28;19935;-55
2022/05/31 10:34:23;;;;;;;;;;;;;;;16.92;59.98;99984.09;5111122;27;19924;-53
2022/05/31 10:36:52;;;;;;;;;;;;;;;16.72;59.55;99985.25;5106381;28;20376;-55
2022/05/31 10:39:21;;;;;;;;;;;;;;;16.37;59.69;99978.44;5108973;27;19928;-54
2022/05/31 10:41:49;;;;;;;;;;;;;;;16.53;59.74;99978.41;5112109;28;20367;-55
2022/05/31 10:44:29;;;;;;;;;;;;;;;16.42;59.24;99975.34;5103465;28;20316;-55
2022/05/31 10:46:59;;;;;;;;;;;;;;;16.29;59.48;99967.38;5121516;27;19927;-56
2022/05/31 10:49:26;;;;;;;;;;;;;;;16.33;59.35;99968.28;5107648;27;19928;-53
2022/05/31 10:52:01;;;;;;;;;;;;;;;16.49;58.82;99971.09;5106133;27;19932;-52
2022/05/31 10:54:44;;;;;;;;;;;;;;;16.82;59.07;99954.56;5128133;27;20390;-55
2022/05/31 10:57:22;;;;;;;;;;;;;;;17.22;57.70;99961.00;5110443;28;19935;-54
2022/05/31 10:59:53;;;;;;;;;;;;;;;17.33;56.00;99958.41;5101367;28;19930;-56
2022/05/31 11:02:31;;;;;;;;;;;;;;;17.33;55.92;99953.56;5110403;27;19931;-52
2022/05/31 11:05:02;;;;;;;;;;;;;;;17.26;55.90;99961.88;5123556;27;20256;-56
2022/05/31 11:07:38;;;;;;;;;;;;;;;16.98;55.92;99959.31;5109244;28;19923;-52
2022/05/31 11:13:06;;;;;;;;;;;;;;;16.82;57.19;99967.81;5113325;28;20303;-55
2022/05/31 11:15:39;;;;;;;;;;;;;;;16.88;57.36;99965.50;5115295;27;20023;-52
2022/05/31 11:18:19;;;;;;;;;;;;;;;16.83;57.74;99978.69;5112065;28;19924;-53
2022/05/31 11:20:50;;;;;;;;;;;;;;;16.99;56.43;99969.38;5111826;28;20380;-53
2022/05/31 11:23:32;;;;;;;;;;;;;;;17.44;55.32;99974.28;5101595;28;20258;-55
2022/05/31 11:26:22;;;;;;;;;;;;;;;17.43;53.40;99975.47;5106299;27;19924;-54
2022/05/31 11:28:54;;;;;;;;;;;;;;;17.80;53.44;99966.47;5112700;28;19947;-56
2022/05/31 11:31:30;;;;;;;;;;;;;;;17.93;52.71;99975.59;5112786;28;19924;-55
2022/05/31 11:34:09;;;;;;;;;;;;;;;18.49;52.40;99962.78;5106413;28;19928;-52
2022/05/31 11:36:43;;;;;;;;;;;;;;;19.09;51.75;99962.00;5105339;28;19924;-55
2022/05/31 11:39:22;;;;;;;;;;;;;;;20.44;47.97;99966.50;5092799;28;19924;-56
2022/05/31 11:41:55;;;;;;;;;;;;;;;22.38;42.51;99942.34;5097924;28;19924;-54
2022/05/31 11:44:35;;;;;;;;;;;;;;;24.59;40.01;99935.75;5098935;28;19931;-53
2022/05/31 11:47:08;;;;;;;;;;;;;;;26.75;35.06;99941.06;5106209;28;19923;-56
2022/05/31 11:49:40;;;;;;;;;;;;;;;27.05;34.51;99935.13;5110880;28;19946;-53
2022/05/31 11:52:14;;;;;;;;;;;;;;;27.85;34.91;99934.16;5111728;28;20283;-56
2022/05/31 11:57:38;;;;;;;;;;;;;;;29.49;29.54;99933.75;5109459;28;19923;-54
2022/05/31 12:00:07;;;;;;;;;;;;;;;30.41;29.07;99931.94;5115867;28;19924;-55
2022/05/31 12:02:38;;;;;;;;;;;;;;;30.44;26.97;99933.09;5112001;28;20010;-54
2022/05/31 12:05:10;;;;;;;;;;;;;;;30.07;27.57;99919.16;5115887;28;19924;-53
2022/05/31 12:07:42;;;;;;;;;;;;;;;31.03;27.52;99919.03;5104616;28;20415;-57
2022/05/31 12:10:13;;;;;;;;;;;;;;;31.45;27.86;99912.91;5108938;27;19930;-57
2022/05/31 12:12:42;;;;;;;;;;;;;;;30.35;27.44;99913.69;5116113;27;19923;-55
2022/05/31 12:15:11;;;;;;;;;;;;;;;29.35;28.53;99917.78;5105580;28;20396;-53
2022/05/31 12:17:42;;;;;;;;;;;;;;;28.66;29.89;99915.28;5113822;28;20265;-56
2022/05/31 12:20:14;;;;;;;;;;;;;;;28.17;30.56;99915.38;5114725;28;19931;-55
2022/05/31 12:22:44;;;;;;;;;;;;;;;27.71;29.89;99923.84;5116099;28;19924;-55
2022/05/31 12:25:14;;;;;;;;;;;;;;;27.45;30.67;99917.94;5119491;27;19923;-54
2022/05/31 12:27:44;;;;;;;;;;;;;;;26.72;30.93;99923.53;5116154;27;20291;-55
2022/05/31 12:30:18;;;;;;;;;;;;;;;25.14;33.63;99927.34;5102516;28;19931;-53
2022/05/31 12:32:48;;;;;;;;;;;;;;;24.86;34.47;99932.16;5096278;28;19924;-53
2022/05/31 12:35:30;;;;;;;;;;;;;;;25.15;35.22;99920.41;5115457;28;19931;-56
2022/05/31 12:38:06;;;;;;;;;;;;;;;25.48;33.87;99913.03;5110853;28;19924;-55
2022/05/31 12:40:38;;;;;;;;;;;;;;;26.13;33.28;99905.06;5124013;27;19924;-55
2022/05/31 12:43:06;;;;;;;;;;;;;;;26.32;33.41;99906.34;5110583;28;19924;-56
2022/05/31 12:45:41;;;;;;;;;;;;;;;26.13;33.16;99905.06;5113164;28;19930;-55
2022/05/31 12:48:18;;;;;;;;;;;;;;;26.08;33.86;99897.00;5119442;27;19927;-56
2022/05/31 12:50:50;;;;;;;;;;;;;;;26.74;32.36;99905.97;5104917;28;19928;-53
2022/05/31 12:53:21;;;;;;;;;;;;;;;27.91;30.71;99901.72;5110224;27;19935;-56
2022/05/31 12:55:51;;;;;;;;;;;;;;;28.73;30.32;99907.28;5094975;28;20312;-56
2022/05/31 12:58:30;;;;;;;;;;;;;;;29.26;29.03;99897.56;5101844;28;19935;-56
2022/05/31 13:00:59;;;;;;;;;;;;;;;29.77;26.56;99902.53;5113600;28;19923;-55
2022/05/31 13:03:47;;;;;;;;;;;;;;;30.41;26.50;99896.63;5111294;27;19923;-55
2022/05/31 13:06:17;;;;;;;;;;;;;;;31.37;26.06;99889.31;5114533;28;20360;-54
2022/05/31 13:08:52;;;;;;;;;;;;;;;31.61;24.07;99891.69;5109189;28;19924;-55
2022/05/31 13:20:09;;;;;;;;;;;;;;;31.00;23.73;99877.63;5138288;27;19923;-54